Terminal Aerodrome Forecast
Issued by NWS

Home | Current Version | Previous Version | Text Only | Print | Product List | Glossary Off
Versions: 1 2 3 4 5 6 7 8 9 10 11 12 13 14 15 16 17 18 19 20 21 22 23

478
FTUS43 KMPX 221740
TAFRWF
TAF
KRWF 221740Z 2218/2318 12008KT P6SM -SHSN OVC020
     FM222130 12010KT 1 1/2SM -SN BR VV015
     FM230000 12008KT 3/4SM -SN BR VV008
     FM230700 24006KT 6SM -SHSN OVC008
     FM231000 28008KT P6SM OVC015
     FM231500 29010KT P6SM BKN035=

USA.gov is the U.S. government's official web portal to all federal, state and local government web resources and services.